sensor_id;sensor_type;location;lat;lon;timestamp;temperature;humidity
8214;DHT22;4148;47.974;7.824;2024-03-06T00:01:43;6.90;1.00
8214;DHT22;4148;47.974;7.824;2024-03-06T00:04:12;6.80;1.00
8214;DHT22;4148;47.974;7.824;2024-03-06T00:06:42;6.70;1.00
8214;DHT22;4148;47.974;7.824;2024-03-06T00:09:10;6.60;1.00
8214;DHT22;4148;47.974;7.824;2024-03-06T00:11:38;6.50;1.00
8214;DHT22;4148;47.974;7.824;2024-03-06T00:14:07;6.50;1.00
8214;DHT22;4148;47.974;7.824;2024-03-06T00:16:36;6.50;1.00
8214;DHT22;4148;47.974;7.824;2024-03-06T00:19:04;6.40;1.00
8214;DHT22;4148;47.974;7.824;2024-03-06T00:21:32;6.50;1.00
8214;DHT22;4148;47.974;7.824;2024-03-06T00:24:00;6.50;1.00
8214;DHT22;4148;47.974;7.824;2024-03-06T00:26:28;6.40;1.00
8214;DHT22;4148;47.974;7.824;2024-03-06T00:28:56;6.50;1.00
8214;DHT22;4148;47.974;7.824;2024-03-06T00:31:24;6.50;1.00
8214;DHT22;4148;47.974;7.824;2024-03-06T00:33:53;6.40;1.00
8214;DHT22;4148;47.974;7.824;2024-03-06T00:36:21;6.40;1.00
8214;DHT22;4148;47.974;7.824;2024-03-06T00:38:50;6.50;1.00
8214;DHT22;4148;47.974;7.824;2024-03-06T00:41:17;6.40;1.00
8214;DHT22;4148;47.974;7.824;2024-03-06T00:43:46;6.50;1.00
8214;DHT22;4148;47.974;7.824;2024-03-06T00:46:14;6.60;1.00
8214;DHT22;4148;47.974;7.824;2024-03-06T00:48:41;6.60;1.00
8214;DHT22;4148;47.974;7.824;2024-03-06T00:51:11;6.60;1.00
8214;DHT22;4148;47.974;7.824;2024-03-06T00:53:39;6.60;1.00
8214;DHT22;4148;47.974;7.824;2024-03-06T00:56:07;6.50;1.00
8214;DHT22;4148;47.974;7.824;2024-03-06T00:58:35;6.50;1.00
8214;DHT22;4148;47.974;7.824;2024-03-06T01:01:03;6.50;1.00
8214;DHT22;4148;47.974;7.824;2024-03-06T01:03:31;6.30;1.00
8214;DHT22;4148;47.974;7.824;2024-03-06T01:05:59;6.20;1.00
8214;DHT22;4148;47.974;7.824;2024-03-06T01:08:28;6.30;1.00
8214;DHT22;4148;47.974;7.824;2024-03-06T01:10:58;6.20;1.00
8214;DHT22;4148;47.974;7.824;2024-03-06T01:13:26;6.30;1.00
8214;DHT22;4148;47.974;7.824;2024-03-06T01:15:54;6.20;1.00
8214;DHT22;4148;47.974;7.824;2024-03-06T01:18:22;6.20;1.00
8214;DHT22;4148;47.974;7.824;2024-03-06T01:20:50;6.30;1.00
8214;DHT22;4148;47.974;7.824;2024-03-06T01:23:18;6.30;1.00
8214;DHT22;4148;47.974;7.824;2024-03-06T01:25:47;6.30;1.00
8214;DHT22;4148;47.974;7.824;2024-03-06T01:28:15;6.30;1.00
8214;DHT22;4148;47.974;7.824;2024-03-06T01:30:43;6.20;1.00
8214;DHT22;4148;47.974;7.824;2024-03-06T01:33:11;6.20;1.00
8214;DHT22;4148;47.974;7.824;2024-03-06T01:35:39;6.20;1.00
8214;DHT22;4148;47.974;7.824;2024-03-06T01:38:07;6.30;1.00
8214;DHT22;4148;47.974;7.824;2024-03-06T01:40:36;6.30;1.00
8214;DHT22;4148;47.974;7.824;2024-03-06T01:43:05;6.30;1.00
8214;DHT22;4148;47.974;7.824;2024-03-06T01:45:33;6.30;1.00
8214;DHT22;4148;47.974;7.824;2024-03-06T01:48:01;6.30;1.00
8214;DHT22;4148;47.974;7.824;2024-03-06T01:50:29;6.30;1.00
8214;DHT22;4148;47.974;7.824;2024-03-06T01:52:58;6.40;1.00
8214;DHT22;4148;47.974;7.824;2024-03-06T01:55:26;6.40;1.00
8214;DHT22;4148;47.974;7.824;2024-03-06T01:57:54;6.40;1.00
8214;DHT22;4148;47.974;7.824;2024-03-06T02:00:23;6.50;1.00
8214;DHT22;4148;47.974;7.824;2024-03-06T02:02:51;6.30;1.00
8214;DHT22;4148;47.974;7.824;2024-03-06T02:05:20;6.20;1.00
8214;DHT22;4148;47.974;7.824;2024-03-06T02:07:49;6.10;1.00
8214;DHT22;4148;47.974;7.824;2024-03-06T02:10:17;6.10;1.00
8214;DHT22;4148;47.974;7.824;2024-03-06T02:12:45;6.10;1.00
8214;DHT22;4148;47.974;7.824;2024-03-06T02:15:15;6.20;1.00
8214;DHT22;4148;47.974;7.824;2024-03-06T02:17:44;6.20;1.00
8214;DHT22;4148;47.974;7.824;2024-03-06T02:20:12;6.20;1.00
8214;DHT22;4148;47.974;7.824;2024-03-06T02:22:42;6.30;1.00
8214;DHT22;4148;47.974;7.824;2024-03-06T02:25:11;6.40;1.00
8214;DHT22;4148;47.974;7.824;2024-03-06T02:27:39;6.30;1.00
8214;DHT22;4148;47.974;7.824;2024-03-06T02:30:08;6.30;1.00
8214;DHT22;4148;47.974;7.824;2024-03-06T02:32:35;6.30;1.00
8214;DHT22;4148;47.974;7.824;2024-03-06T02:35:04;6.50;1.00
8214;DHT22;4148;47.974;7.824;2024-03-06T02:37:35;6.40;1.00
8214;DHT22;4148;47.974;7.824;2024-03-06T02:40:06;6.40;1.00
8214;DHT22;4148;47.974;7.824;2024-03-06T02:42:36;6.30;1.00
8214;DHT22;4148;47.974;7.824;2024-03-06T02:45:07;6.30;1.00
8214;DHT22;4148;47.974;7.824;2024-03-06T02:47:35;6.30;1.00
8214;DHT22;4148;47.974;7.824;2024-03-06T02:50:04;6.20;1.00
8214;DHT22;4148;47.974;7.824;2024-03-06T02:52:32;6.20;6.40
8214;DHT22;4148;47.974;7.824;2024-03-06T02:55:00;6.20;6.70
8214;DHT22;4148;47.974;7.824;2024-03-06T02:57:29;6.20;7.60
8214;DHT22;4148;47.974;7.824;2024-03-06T02:59:57;6.20;7.90
8214;DHT22;4148;47.974;7.824;2024-03-06T03:02:26;6.30;13.80
8214;DHT22;4148;47.974;7.824;2024-03-06T03:04:53;6.40;15.20
8214;DHT22;4148;47.974;7.824;2024-03-06T03:07:21;6.40;10.60
8214;DHT22;4148;47.974;7.824;2024-03-06T03:09:50;6.40;4.60
8214;DHT22;4148;47.974;7.824;2024-03-06T03:12:18;6.40;9.50
8214;DHT22;4148;47.974;7.824;2024-03-06T03:14:48;6.60;1.00
8214;DHT22;4148;47.974;7.824;2024-03-06T03:17:17;6.60;1.00
8214;DHT22;4148;47.974;7.824;2024-03-06T03:19:46;6.60;1.00
8214;DHT22;4148;47.974;7.824;2024-03-06T03:22:14;6.50;1.00
8214;DHT22;4148;47.974;7.824;2024-03-06T03:24:42;6.60;1.00
8214;DHT22;4148;47.974;7.824;2024-03-06T03:27:10;6.50;1.00
8214;DHT22;4148;47.974;7.824;2024-03-06T03:29:38;6.50;1.00
8214;DHT22;4148;47.974;7.824;2024-03-06T03:32:07;6.40;1.80
8214;DHT22;4148;47.974;7.824;2024-03-06T03:34:35;6.60;4.80
8214;DHT22;4148;47.974;7.824;2024-03-06T03:37:03;6.80;1.00
8214;DHT22;4148;47.974;7.824;2024-03-06T03:39:31;6.80;1.00
8214;DHT22;4148;47.974;7.824;2024-03-06T03:41:59;6.70;1.00
8214;DHT22;4148;47.974;7.824;2024-03-06T03:44:27;6.60;1.00
8214;DHT22;4148;47.974;7.824;2024-03-06T03:46:55;6.50;1.00
8214;DHT22;4148;47.974;7.824;2024-03-06T03:49:24;6.50;1.00
8214;DHT22;4148;47.974;7.824;2024-03-06T03:51:51;6.40;1.00
8214;DHT22;4148;47.974;7.824;2024-03-06T03:54:19;6.30;1.70
8214;DHT22;4148;47.974;7.824;2024-03-06T03:56:47;6.20;6.30
8214;DHT22;4148;47.974;7.824;2024-03-06T03:59:15;6.40;8.70
8214;DHT22;4148;47.974;7.824;2024-03-06T04:01:45;6.60;1.00
8214;DHT22;4148;47.974;7.824;2024-03-06T04:04:13;6.60;1.00
8214;DHT22;4148;47.974;7.824;2024-03-06T04:06:42;6.70;1.00
8214;DHT22;4148;47.974;7.824;2024-03-06T04:09:10;6.70;1.00
8214;DHT22;4148;47.974;7.824;2024-03-06T04:11:38;6.70;1.00
8214;DHT22;4148;47.974;7.824;2024-03-06T04:14:07;6.70;1.00
8214;DHT22;4148;47.974;7.824;2024-03-06T04:16:35;6.80;1.00
8214;DHT22;4148;47.974;7.824;2024-03-06T04:19:03;6.80;1.00
8214;DHT22;4148;47.974;7.824;2024-03-06T04:21:31;6.70;1.00
8214;DHT22;4148;47.974;7.824;2024-03-06T04:24:00;6.70;1.00
8214;DHT22;4148;47.974;7.824;2024-03-06T04:26:28;6.70;1.00
8214;DHT22;4148;47.974;7.824;2024-03-06T04:28:56;6.60;1.00
8214;DHT22;4148;47.974;7.824;2024-03-06T04:31:24;6.70;1.00
8214;DHT22;4148;47.974;7.824;2024-03-06T04:33:52;6.60;1.00
8214;DHT22;4148;47.974;7.824;2024-03-06T04:36:20;6.70;1.00
8214;DHT22;4148;47.974;7.824;2024-03-06T04:38:48;6.60;1.00
8214;DHT22;4148;47.974;7.824;2024-03-06T04:41:20;6.60;1.00
8214;DHT22;4148;47.974;7.824;2024-03-06T04:43:50;6.60;1.00
8214;DHT22;4148;47.974;7.824;2024-03-06T04:46:18;6.50;1.00
8214;DHT22;4148;47.974;7.824;2024-03-06T04:48:46;6.70;1.00
8214;DHT22;4148;47.974;7.824;2024-03-06T04:51:15;6.50;1.00
8214;DHT22;4148;47.974;7.824;2024-03-06T04:53:43;6.50;1.00
8214;DHT22;4148;47.974;7.824;2024-03-06T04:56:11;6.60;1.00
8214;DHT22;4148;47.974;7.824;2024-03-06T04:58:41;6.60;1.00
8214;DHT22;4148;47.974;7.824;2024-03-06T05:01:11;6.60;1.00
8214;DHT22;4148;47.974;7.824;2024-03-06T05:03:40;6.80;1.00
8214;DHT22;4148;47.974;7.824;2024-03-06T05:06:25;6.70;1.00
8214;DHT22;4148;47.974;7.824;2024-03-06T05:09:11;6.60;1.00
8214;DHT22;4148;47.974;7.824;2024-03-06T05:11:56;6.70;1.00
8214;DHT22;4148;47.974;7.824;2024-03-06T05:14:44;6.50;1.00
8214;DHT22;4148;47.974;7.824;2024-03-06T05:17:29;6.50;1.00
8214;DHT22;4148;47.974;7.824;2024-03-06T05:20:15;6.50;1.00
8214;DHT22;4148;47.974;7.824;2024-03-06T05:23:00;6.40;1.00
8214;DHT22;4148;47.974;7.824;2024-03-06T05:25:46;6.40;1.00
8214;DHT22;4148;47.974;7.824;2024-03-06T05:28:32;6.40;1.00
8214;DHT22;4148;47.974;7.824;2024-03-06T05:31:19;6.50;1.00
8214;DHT22;4148;47.974;7.824;2024-03-06T05:34:05;6.40;1.00
8214;DHT22;4148;47.974;7.824;2024-03-06T05:36:50;6.40;1.00
8214;DHT22;4148;47.974;7.824;2024-03-06T05:39:36;6.20;1.00
8214;DHT22;4148;47.974;7.824;2024-03-06T05:42:22;6.20;1.00
8214;DHT22;4148;47.974;7.824;2024-03-06T05:45:08;6.10;1.00
8214;DHT22;4148;47.974;7.824;2024-03-06T05:47:57;6.00;1.00
8214;DHT22;4148;47.974;7.824;2024-03-06T05:50:43;6.00;1.00
8214;DHT22;4148;47.974;7.824;2024-03-06T05:53:28;6.10;1.00
8214;DHT22;4148;47.974;7.824;2024-03-06T05:56:14;6.10;1.00
8214;DHT22;4148;47.974;7.824;2024-03-06T05:58:59;6.10;1.00
8214;DHT22;4148;47.974;7.824;2024-03-06T06:01:31;6.10;1.00
8214;DHT22;4148;47.974;7.824;2024-03-06T06:04:01;6.00;1.00
8214;DHT22;4148;47.974;7.824;2024-03-06T06:06:33;6.00;1.00
8214;DHT22;4148;47.974;7.824;2024-03-06T06:09:01;5.90;1.00
8214;DHT22;4148;47.974;7.824;2024-03-06T06:11:31;5.90;1.00
8214;DHT22;4148;47.974;7.824;2024-03-06T06:14:00;5.90;1.00
8214;DHT22;4148;47.974;7.824;2024-03-06T06:16:34;5.90;1.00
8214;DHT22;4148;47.974;7.824;2024-03-06T06:19:04;5.90;1.00
8214;DHT22;4148;47.974;7.824;2024-03-06T06:21:32;5.80;1.00
8214;DHT22;4148;47.974;7.824;2024-03-06T06:24:02;5.90;1.00
8214;DHT22;4148;47.974;7.824;2024-03-06T06:26:31;6.00;1.00
8214;DHT22;4148;47.974;7.824;2024-03-06T06:28:59;6.10;1.00
8214;DHT22;4148;47.974;7.824;2024-03-06T06:31:27;6.10;1.00
8214;DHT22;4148;47.974;7.824;2024-03-06T06:33:55;6.20;1.00
8214;DHT22;4148;47.974;7.824;2024-03-06T06:36:25;6.20;1.00
8214;DHT22;4148;47.974;7.824;2024-03-06T06:38:53;6.20;1.00
8214;DHT22;4148;47.974;7.824;2024-03-06T06:41:22;6.30;1.00
8214;DHT22;4148;47.974;7.824;2024-03-06T06:43:50;6.30;1.00
8214;DHT22;4148;47.974;7.824;2024-03-06T06:46:19;6.10;1.00
8214;DHT22;4148;47.974;7.824;2024-03-06T06:48:47;5.90;1.00
8214;DHT22;4148;47.974;7.824;2024-03-06T06:51:16;5.90;1.00
8214;DHT22;4148;47.974;7.824;2024-03-06T06:53:45;5.90;1.00
8214;DHT22;4148;47.974;7.824;2024-03-06T06:56:13;5.80;1.00
8214;DHT22;4148;47.974;7.824;2024-03-06T06:58:41;5.80;1.00
8214;DHT22;4148;47.974;7.824;2024-03-06T07:01:10;5.80;1.00
8214;DHT22;4148;47.974;7.824;2024-03-06T07:03:38;5.80;1.00
8214;DHT22;4148;47.974;7.824;2024-03-06T07:06:06;5.70;1.00
8214;DHT22;4148;47.974;7.824;2024-03-06T07:08:34;5.70;1.00
8214;DHT22;4148;47.974;7.824;2024-03-06T07:11:03;5.80;1.00
8214;DHT22;4148;47.974;7.824;2024-03-06T07:13:32;5.90;1.00
8214;DHT22;4148;47.974;7.824;2024-03-06T07:15:59;5.90;1.00
8214;DHT22;4148;47.974;7.824;2024-03-06T07:18:29;5.90;1.00
8214;DHT22;4148;47.974;7.824;2024-03-06T07:20:57;5.90;1.00
8214;DHT22;4148;47.974;7.824;2024-03-06T07:23:25;5.90;1.00
8214;DHT22;4148;47.974;7.824;2024-03-06T07:25:53;5.90;1.00
8214;DHT22;4148;47.974;7.824;2024-03-06T07:28:24;5.80;1.00
8214;DHT22;4148;47.974;7.824;2024-03-06T07:30:52;5.80;1.00
8214;DHT22;4148;47.974;7.824;2024-03-06T07:33:20;5.60;1.00
8214;DHT22;4148;47.974;7.824;2024-03-06T07:35:49;5.60;1.00
8214;DHT22;4148;47.974;7.824;2024-03-06T07:38:16;5.70;1.00
8214;DHT22;4148;47.974;7.824;2024-03-06T07:40:44;5.70;1.00
8214;DHT22;4148;47.974;7.824;2024-03-06T07:43:12;5.70;1.00
8214;DHT22;4148;47.974;7.824;2024-03-06T07:45:42;5.60;1.00
8214;DHT22;4148;47.974;7.824;2024-03-06T07:48:10;5.70;1.00
8214;DHT22;4148;47.974;7.824;2024-03-06T07:50:38;5.60;1.00
8214;DHT22;4148;47.974;7.824;2024-03-06T07:53:06;5.70;1.00
8214;DHT22;4148;47.974;7.824;2024-03-06T07:55:34;5.50;1.00
8214;DHT22;4148;47.974;7.824;2024-03-06T07:58:02;5.40;1.00
8214;DHT22;4148;47.974;7.824;2024-03-06T08:00:30;5.40;1.00
8214;DHT22;4148;47.974;7.824;2024-03-06T08:02:59;5.40;1.00
8214;DHT22;4148;47.974;7.824;2024-03-06T08:05:28;5.50;1.00
8214;DHT22;4148;47.974;7.824;2024-03-06T08:07:56;5.40;1.00
8214;DHT22;4148;47.974;7.824;2024-03-06T08:10:24;5.40;1.00
8214;DHT22;4148;47.974;7.824;2024-03-06T08:12:52;5.40;1.00
8214;DHT22;4148;47.974;7.824;2024-03-06T08:15:20;5.50;1.00
8214;DHT22;4148;47.974;7.824;2024-03-06T08:17:49;5.60;1.00
8214;DHT22;4148;47.974;7.824;2024-03-06T08:20:20;5.70;1.00
8214;DHT22;4148;47.974;7.824;2024-03-06T08:22:48;5.70;1.00
8214;DHT22;4148;47.974;7.824;2024-03-06T08:25:16;5.70;1.00
8214;DHT22;4148;47.974;7.824;2024-03-06T08:27:44;5.80;1.00
8214;DHT22;4148;47.974;7.824;2024-03-06T08:30:12;5.70;1.00
8214;DHT22;4148;47.974;7.824;2024-03-06T08:32:40;5.80;1.00
8214;DHT22;4148;47.974;7.824;2024-03-06T08:35:12;5.80;1.00
8214;DHT22;4148;47.974;7.824;2024-03-06T08:37:47;5.80;1.00
8214;DHT22;4148;47.974;7.824;2024-03-06T08:40:15;5.80;1.00
8214;DHT22;4148;47.974;7.824;2024-03-06T08:42:44;5.90;1.00
8214;DHT22;4148;47.974;7.824;2024-03-06T08:45:13;6.10;1.00
8214;DHT22;4148;47.974;7.824;2024-03-06T08:47:43;6.00;1.00
8214;DHT22;4148;47.974;7.824;2024-03-06T08:50:12;6.00;1.00
8214;DHT22;4148;47.974;7.824;2024-03-06T08:52:40;6.10;1.00
8214;DHT22;4148;47.974;7.824;2024-03-06T08:55:10;6.00;1.00
8214;DHT22;4148;47.974;7.824;2024-03-06T08:57:38;5.90;1.00
8214;DHT22;4148;47.974;7.824;2024-03-06T09:00:07;5.90;1.00
8214;DHT22;4148;47.974;7.824;2024-03-06T09:02:37;6.10;1.00
8214;DHT22;4148;47.974;7.824;2024-03-06T09:05:06;6.30;1.00
8214;DHT22;4148;47.974;7.824;2024-03-06T09:07:37;6.30;1.00
8214;DHT22;4148;47.974;7.824;2024-03-06T09:10:07;6.30;1.00
8214;DHT22;4148;47.974;7.824;2024-03-06T09:12:37;6.40;1.00
8214;DHT22;4148;47.974;7.824;2024-03-06T09:15:06;6.40;1.00
8214;DHT22;4148;47.974;7.824;2024-03-06T09:17:35;6.40;1.00
8214;DHT22;4148;47.974;7.824;2024-03-06T09:20:04;6.50;1.00
8214;DHT22;4148;47.974;7.824;2024-03-06T09:22:38;6.60;1.00
8214;DHT22;4148;47.974;7.824;2024-03-06T09:25:06;6.60;1.00
8214;DHT22;4148;47.974;7.824;2024-03-06T09:27:35;6.70;1.00
8214;DHT22;4148;47.974;7.824;2024-03-06T09:30:06;6.70;1.00
8214;DHT22;4148;47.974;7.824;2024-03-06T09:32:35;6.70;1.00
8214;DHT22;4148;47.974;7.824;2024-03-06T09:35:04;6.80;1.00
8214;DHT22;4148;47.974;7.824;2024-03-06T09:37:32;6.80;99.90
8214;DHT22;4148;47.974;7.824;2024-03-06T09:40:00;7.10;1.00
8214;DHT22;4148;47.974;7.824;2024-03-06T09:42:29;7.20;99.90
8214;DHT22;4148;47.974;7.824;2024-03-06T09:44:57;7.30;99.90
8214;DHT22;4148;47.974;7.824;2024-03-06T09:47:28;7.40;99.90
8214;DHT22;4148;47.974;7.824;2024-03-06T09:50:00;7.50;28.70
8214;DHT22;4148;47.974;7.824;2024-03-06T09:52:30;7.40;72.20
8214;DHT22;4148;47.974;7.824;2024-03-06T09:54:59;7.40;99.90
8214;DHT22;4148;47.974;7.824;2024-03-06T09:57:29;7.40;99.90
8214;DHT22;4148;47.974;7.824;2024-03-06T09:59:57;7.20;1.00
8214;DHT22;4148;47.974;7.824;2024-03-06T10:02:34;7.20;99.90
8214;DHT22;4148;47.974;7.824;2024-03-06T10:05:05;7.00;99.90
8214;DHT22;4148;47.974;7.824;2024-03-06T10:07:34;7.00;99.90
8214;DHT22;4148;47.974;7.824;2024-03-06T10:10:01;7.10;99.90
8214;DHT22;4148;47.974;7.824;2024-03-06T10:12:30;7.10;27.80
8214;DHT22;4148;47.974;7.824;2024-03-06T10:14:58;7.20;99.90
8214;DHT22;4148;47.974;7.824;2024-03-06T10:17:26;7.40;1.00
8214;DHT22;4148;47.974;7.824;2024-03-06T10:19:56;7.40;99.90
8214;DHT22;4148;47.974;7.824;2024-03-06T10:22:28;7.60;1.00
8214;DHT22;4148;47.974;7.824;2024-03-06T10:24:56;7.60;1.00
8214;DHT22;4148;47.974;7.824;2024-03-06T10:27:24;7.80;21.60
8214;DHT22;4148;47.974;7.824;2024-03-06T10:30:01;7.90;1.00
8214;DHT22;4148;47.974;7.824;2024-03-06T10:32:31;8.00;1.00
8214;DHT22;4148;47.974;7.824;2024-03-06T10:35:01;8.00;99.90
8214;DHT22;4148;47.974;7.824;2024-03-06T10:37:30;8.00;1.00
8214;DHT22;4148;47.974;7.824;2024-03-06T10:39:58;8.00;1.00
8214;DHT22;4148;47.974;7.824;2024-03-06T10:42:33;8.10;99.90
8214;DHT22;4148;47.974;7.824;2024-03-06T10:45:05;8.40;99.90
8214;DHT22;4148;47.974;7.824;2024-03-06T10:47:33;8.60;99.90
8214;DHT22;4148;47.974;7.824;2024-03-06T10:50:06;9.00;1.00
8214;DHT22;4148;47.974;7.824;2024-03-06T10:52:38;9.10;99.90
8214;DHT22;4148;47.974;7.824;2024-03-06T10:55:08;8.90;99.90
8214;DHT22;4148;47.974;7.824;2024-03-06T10:57:37;8.70;1.00
8214;DHT22;4148;47.974;7.824;2024-03-06T11:00:06;8.70;99.90
8214;DHT22;4148;47.974;7.824;2024-03-06T11:02:35;8.70;1.00
8214;DHT22;4148;47.974;7.824;2024-03-06T11:05:07;8.80;98.20
8214;DHT22;4148;47.974;7.824;2024-03-06T11:07:36;8.90;1.00
8214;DHT22;4148;47.974;7.824;2024-03-06T11:10:04;8.90;99.90
8214;DHT22;4148;47.974;7.824;2024-03-06T11:12:33;9.10;1.00
8214;DHT22;4148;47.974;7.824;2024-03-06T11:15:09;9.10;14.80
8214;DHT22;4148;47.974;7.824;2024-03-06T11:17:37;9.10;1.00
8214;DHT22;4148;47.974;7.824;2024-03-06T11:20:18;9.00;1.00
8214;DHT22;4148;47.974;7.824;2024-03-06T11:23:02;9.10;1.00
8214;DHT22;4148;47.974;7.824;2024-03-06T11:25:59;9.00;54.80
8214;DHT22;4148;47.974;7.824;2024-03-06T11:28:30;9.10;99.90
8214;DHT22;4148;47.974;7.824;2024-03-06T11:30:59;9.10;1.00
8214;DHT22;4148;47.974;7.824;2024-03-06T11:33:38;9.00;1.00
8214;DHT22;4148;47.974;7.824;2024-03-06T11:36:17;9.00;99.90
8214;DHT22;4148;47.974;7.824;2024-03-06T11:38:51;8.90;1.00
8214;DHT22;4148;47.974;7.824;2024-03-06T11:41:21;9.00;1.00
8214;DHT22;4148;47.974;7.824;2024-03-06T11:43:52;9.00;99.90
8214;DHT22;4148;47.974;7.824;2024-03-06T11:46:22;9.20;99.90
8214;DHT22;4148;47.974;7.824;2024-03-06T11:48:54;9.10;1.00
8214;DHT22;4148;47.974;7.824;2024-03-06T11:51:23;9.10;1.00
8214;DHT22;4148;47.974;7.824;2024-03-06T11:53:53;9.00;99.90
8214;DHT22;4148;47.974;7.824;2024-03-06T11:56:21;9.10;1.00
8214;DHT22;4148;47.974;7.824;2024-03-06T11:58:49;8.90;99.90
8214;DHT22;4148;47.974;7.824;2024-03-06T12:01:17;8.90;1.00
8214;DHT22;4148;47.974;7.824;2024-03-06T12:03:47;9.10;99.90
8214;DHT22;4148;47.974;7.824;2024-03-06T12:06:15;9.20;1.00
8214;DHT22;4148;47.974;7.824;2024-03-06T12:08:47;9.50;1.00
8214;DHT22;4148;47.974;7.824;2024-03-06T12:11:15;9.50;99.90
8214;DHT22;4148;47.974;7.824;2024-03-06T12:13:45;9.50;99.90
8214;DHT22;4148;47.974;7.824;2024-03-06T12:16:14;9.40;99.90
8214;DHT22;4148;47.974;7.824;2024-03-06T12:18:42;9.50;99.90
8214;DHT22;4148;47.974;7.824;2024-03-06T12:21:10;9.50;1.00
8214;DHT22;4148;47.974;7.824;2024-03-06T12:23:40;9.40;99.90
8214;DHT22;4148;47.974;7.824;2024-03-06T12:26:10;9.40;64.00
8214;DHT22;4148;47.974;7.824;2024-03-06T12:28:38;9.30;73.90
8214;DHT22;4148;47.974;7.824;2024-03-06T12:31:06;9.50;99.90
8214;DHT22;4148;47.974;7.824;2024-03-06T12:33:35;9.50;21.70
8214;DHT22;4148;47.974;7.824;2024-03-06T12:36:04;9.30;18.30
8214;DHT22;4148;47.974;7.824;2024-03-06T12:38:33;9.50;1.00
8214;DHT22;4148;47.974;7.824;2024-03-06T12:41:01;9.60;1.00
8214;DHT22;4148;47.974;7.824;2024-03-06T12:43:30;9.70;1.00
8214;DHT22;4148;47.974;7.824;2024-03-06T12:46:00;9.90;1.00
8214;DHT22;4148;47.974;7.824;2024-03-06T12:48:31;10.00;1.00
8214;DHT22;4148;47.974;7.824;2024-03-06T12:50:59;10.20;1.00
8214;DHT22;4148;47.974;7.824;2024-03-06T12:53:32;10.50;1.00
8214;DHT22;4148;47.974;7.824;2024-03-06T12:56:02;10.50;1.00
8214;DHT22;4148;47.974;7.824;2024-03-06T12:58:32;10.50;1.00
8214;DHT22;4148;47.974;7.824;2024-03-06T13:01:02;10.60;1.00
8214;DHT22;4148;47.974;7.824;2024-03-06T13:03:30;10.60;1.00
8214;DHT22;4148;47.974;7.824;2024-03-06T13:05:58;10.70;1.00
8214;DHT22;4148;47.974;7.824;2024-03-06T13:08:26;10.60;1.00
8214;DHT22;4148;47.974;7.824;2024-03-06T13:10:54;10.50;1.00
8214;DHT22;4148;47.974;7.824;2024-03-06T13:13:23;10.40;1.00
8214;DHT22;4148;47.974;7.824;2024-03-06T13:15:52;10.00;1.00
8214;DHT22;4148;47.974;7.824;2024-03-06T13:18:20;9.90;1.00
8214;DHT22;4148;47.974;7.824;2024-03-06T13:20:48;9.80;75.90
8214;DHT22;4148;47.974;7.824;2024-03-06T13:23:16;9.70;31.00
8214;DHT22;4148;47.974;7.824;2024-03-06T13:25:44;9.60;99.90
8214;DHT22;4148;47.974;7.824;2024-03-06T13:28:13;9.60;99.90
8214;DHT22;4148;47.974;7.824;2024-03-06T13:30:41;9.60;1.00
8214;DHT22;4148;47.974;7.824;2024-03-06T13:33:10;9.40;1.00
8214;DHT22;4148;47.974;7.824;2024-03-06T13:35:39;9.40;99.90
8214;DHT22;4148;47.974;7.824;2024-03-06T13:38:07;9.20;1.00
8214;DHT22;4148;47.974;7.824;2024-03-06T13:40:35;9.10;99.90
8214;DHT22;4148;47.974;7.824;2024-03-06T13:43:03;9.00;1.00
8214;DHT22;4148;47.974;7.824;2024-03-06T13:45:31;9.00;1.00
8214;DHT22;4148;47.974;7.824;2024-03-06T13:47:59;8.80;1.00
8214;DHT22;4148;47.974;7.824;2024-03-06T13:50:28;8.90;99.90
8214;DHT22;4148;47.974;7.824;2024-03-06T13:52:56;8.90;1.00
8214;DHT22;4148;47.974;7.824;2024-03-06T13:55:24;9.00;1.00
8214;DHT22;4148;47.974;7.824;2024-03-06T13:57:55;9.20;1.00
8214;DHT22;4148;47.974;7.824;2024-03-06T14:00:23;9.30;1.00
8214;DHT22;4148;47.974;7.824;2024-03-06T14:02:51;9.40;1.00
8214;DHT22;4148;47.974;7.824;2024-03-06T14:05:19;9.30;99.90
8214;DHT22;4148;47.974;7.824;2024-03-06T14:07:52;9.10;99.90
8214;DHT22;4148;47.974;7.824;2024-03-06T14:10:21;9.20;99.90
8214;DHT22;4148;47.974;7.824;2024-03-06T14:12:50;9.10;1.00
8214;DHT22;4148;47.974;7.824;2024-03-06T14:15:19;9.00;99.90
8214;DHT22;4148;47.974;7.824;2024-03-06T14:17:49;9.10;1.00
8214;DHT22;4148;47.974;7.824;2024-03-06T14:20:17;9.00;24.80
8214;DHT22;4148;47.974;7.824;2024-03-06T14:22:45;8.90;99.90
8214;DHT22;4148;47.974;7.824;2024-03-06T14:25:15;8.90;99.90
8214;DHT22;4148;47.974;7.824;2024-03-06T14:27:44;8.80;99.90
8214;DHT22;4148;47.974;7.824;2024-03-06T14:30:12;8.80;99.90
8214;DHT22;4148;47.974;7.824;2024-03-06T14:32:41;8.80;99.90
8214;DHT22;4148;47.974;7.824;2024-03-06T14:35:10;8.80;84.10
8214;DHT22;4148;47.974;7.824;2024-03-06T14:37:38;8.80;99.90
8214;DHT22;4148;47.974;7.824;2024-03-06T14:40:07;8.90;1.00
8214;DHT22;4148;47.974;7.824;2024-03-06T14:42:37;8.90;13.80
8214;DHT22;4148;47.974;7.824;2024-03-06T14:45:06;8.80;99.90
8214;DHT22;4148;47.974;7.824;2024-03-06T14:47:34;8.80;1.00
8214;DHT22;4148;47.974;7.824;2024-03-06T14:50:03;8.70;99.90
8214;DHT22;4148;47.974;7.824;2024-03-06T14:52:31;8.70;1.00
8214;DHT22;4148;47.974;7.824;2024-03-06T14:54:59;8.80;1.00
8214;DHT22;4148;47.974;7.824;2024-03-06T14:57:27;8.80;1.00
8214;DHT22;4148;47.974;7.824;2024-03-06T14:59:56;8.80;1.00
8214;DHT22;4148;47.974;7.824;2024-03-06T15:02:25;8.70;1.00
8214;DHT22;4148;47.974;7.824;2024-03-06T15:04:53;8.70;1.00
8214;DHT22;4148;47.974;7.824;2024-03-06T15:07:21;8.60;1.00
8214;DHT22;4148;47.974;7.824;2024-03-06T15:09:49;8.60;4.90
8214;DHT22;4148;47.974;7.824;2024-03-06T15:12:17;8.60;1.00
8214;DHT22;4148;47.974;7.824;2024-03-06T15:14:45;8.50;1.00
8214;DHT22;4148;47.974;7.824;2024-03-06T15:17:24;8.50;1.00
8214;DHT22;4148;47.974;7.824;2024-03-06T15:19:53;8.40;62.60
8214;DHT22;4148;47.974;7.824;2024-03-06T15:22:21;8.30;99.90
8214;DHT22;4148;47.974;7.824;2024-03-06T15:24:49;8.40;1.00
8214;DHT22;4148;47.974;7.824;2024-03-06T15:27:20;8.30;1.00
8214;DHT22;4148;47.974;7.824;2024-03-06T15:29:49;8.20;99.90
8214;DHT22;4148;47.974;7.824;2024-03-06T15:32:17;8.20;80.40
8214;DHT22;4148;47.974;7.824;2024-03-06T15:34:46;8.10;99.90
8214;DHT22;4148;47.974;7.824;2024-03-06T15:37:14;8.00;99.90
8214;DHT22;4148;47.974;7.824;2024-03-06T15:39:42;8.10;99.90
8214;DHT22;4148;47.974;7.824;2024-03-06T15:42:10;8.00;1.00
8214;DHT22;4148;47.974;7.824;2024-03-06T15:44:38;8.00;1.00
8214;DHT22;4148;47.974;7.824;2024-03-06T15:47:08;8.00;99.90
8214;DHT22;4148;47.974;7.824;2024-03-06T15:49:37;7.90;99.90
8214;DHT22;4148;47.974;7.824;2024-03-06T15:52:06;8.00;1.00
8214;DHT22;4148;47.974;7.824;2024-03-06T15:54:34;7.90;99.90
8214;DHT22;4148;47.974;7.824;2024-03-06T15:57:03;7.90;99.90
8214;DHT22;4148;47.974;7.824;2024-03-06T15:59:32;7.80;99.90
8214;DHT22;4148;47.974;7.824;2024-03-06T16:02:01;7.80;1.00
8214;DHT22;4148;47.974;7.824;2024-03-06T16:04:29;7.70;99.90
8214;DHT22;4148;47.974;7.824;2024-03-06T16:06:57;7.70;35.80
8214;DHT22;4148;47.974;7.824;2024-03-06T16:09:26;7.60;1.00
8214;DHT22;4148;47.974;7.824;2024-03-06T16:11:54;7.50;99.90
8214;DHT22;4148;47.974;7.824;2024-03-06T16:14:22;7.60;99.90
8214;DHT22;4148;47.974;7.824;2024-03-06T16:16:50;7.60;99.90
8214;DHT22;4148;47.974;7.824;2024-03-06T16:19:18;7.50;99.90
8214;DHT22;4148;47.974;7.824;2024-03-06T16:21:57;7.50;1.00
8214;DHT22;4148;47.974;7.824;2024-03-06T16:24:26;7.40;1.00
8214;DHT22;4148;47.974;7.824;2024-03-06T16:26:54;7.50;97.40
8214;DHT22;4148;47.974;7.824;2024-03-06T16:29:23;7.50;99.90
8214;DHT22;4148;47.974;7.824;2024-03-06T16:31:51;7.20;99.90
8214;DHT22;4148;47.974;7.824;2024-03-06T16:34:19;7.30;99.90
8214;DHT22;4148;47.974;7.824;2024-03-06T16:36:50;7.30;1.00
8214;DHT22;4148;47.974;7.824;2024-03-06T16:39:18;7.40;1.00
8214;DHT22;4148;47.974;7.824;2024-03-06T16:41:47;7.40;1.00
8214;DHT22;4148;47.974;7.824;2024-03-06T16:44:15;7.30;1.00
8214;DHT22;4148;47.974;7.824;2024-03-06T16:46:43;7.20;99.90